sensor_id;sensor_type;location;lat;lon;timestamp;temperature;humidity
57552;DHT22;43379;48.160;14.036;2022-08-01T00:01:04;23.60;91.90
57552;DHT22;43379;48.160;14.036;2022-08-01T00:03:30;23.60;92.00
57552;DHT22;43379;48.160;14.036;2022-08-01T00:05:56;23.60;92.20
57552;DHT22;43379;48.160;14.036;2022-08-01T00:08:21;23.50;92.30
57552;DHT22;43379;48.160;14.036;2022-08-01T00:10:47;23.50;92.10
57552;DHT22;43379;48.160;14.036;2022-08-01T00:16:35;23.50;92.40
57552;DHT22;43379;48.160;14.036;2022-08-01T00:19:01;23.50;92.50
57552;DHT22;43379;48.160;14.036;2022-08-01T00:21:27;23.50;92.70
57552;DHT22;43379;48.160;14.036;2022-08-01T00:23:53;23.40;92.70
57552;DHT22;43379;48.160;14.036;2022-08-01T00:26:19;23.40;93.00
57552;DHT22;43379;48.160;14.036;2022-08-01T00:28:45;23.40;93.10
57552;DHT22;43379;48.160;14.036;2022-08-01T00:31:10;23.30;93.00
57552;DHT22;43379;48.160;14.036;2022-08-01T00:33:36;23.40;93.00
57552;DHT22;43379;48.160;14.036;2022-08-01T00:36:02;23.40;93.10
57552;DHT22;43379;48.160;14.036;2022-08-01T00:38:28;23.30;93.10
57552;DHT22;43379;48.160;14.036;2022-08-01T00:40:54;23.30;93.10
57552;DHT22;43379;48.160;14.036;2022-08-01T00:43:19;23.30;93.10
57552;DHT22;43379;48.160;14.036;2022-08-01T00:45:45;23.30;93.10
57552;DHT22;43379;48.160;14.036;2022-08-01T00:48:11;23.30;93.20
57552;DHT22;43379;48.160;14.036;2022-08-01T00:50:36;23.30;93.30
57552;DHT22;43379;48.160;14.036;2022-08-01T00:53:03;23.30;93.30
57552;DHT22;43379;48.160;14.036;2022-08-01T00:55:31;23.20;93.50
57552;DHT22;43379;48.160;14.036;2022-08-01T00:57:57;23.30;93.30
57552;DHT22;43379;48.160;14.036;2022-08-01T01:00:23;23.30;93.60
57552;DHT22;43379;48.160;14.036;2022-08-01T01:02:49;23.20;93.80
57552;DHT22;43379;48.160;14.036;2022-08-01T01:05:15;23.20;94.10
57552;DHT22;43379;48.160;14.036;2022-08-01T01:10:36;23.20;94.00
57552;DHT22;43379;48.160;14.036;2022-08-01T01:18:11;23.00;94.50
57552;DHT22;43379;48.160;14.036;2022-08-01T01:20:40;23.00;94.90
57552;DHT22;43379;48.160;14.036;2022-08-01T01:31:14;23.00;94.80
57552;DHT22;43379;48.160;14.036;2022-08-01T01:33:41;23.10;94.50
57552;DHT22;43379;48.160;14.036;2022-08-01T01:36:09;23.00;94.70
57552;DHT22;43379;48.160;14.036;2022-08-01T01:38:41;22.90;94.70
57552;DHT22;43379;48.160;14.036;2022-08-01T01:41:09;23.00;94.70
57552;DHT22;43379;48.160;14.036;2022-08-01T01:43:37;23.00;94.60
57552;DHT22;43379;48.160;14.036;2022-08-01T01:46:04;23.00;94.70
57552;DHT22;43379;48.160;14.036;2022-08-01T01:48:31;23.10;94.70
57552;DHT22;43379;48.160;14.036;2022-08-01T01:50:58;22.90;94.90
57552;DHT22;43379;48.160;14.036;2022-08-01T01:53:25;22.90;95.20
57552;DHT22;43379;48.160;14.036;2022-08-01T01:55:53;23.00;95.30
57552;DHT22;43379;48.160;14.036;2022-08-01T01:58:22;22.90;95.40
57552;DHT22;43379;48.160;14.036;2022-08-01T02:00:51;22.90;95.20
57552;DHT22;43379;48.160;14.036;2022-08-01T02:03:18;22.90;95.00
57552;DHT22;43379;48.160;14.036;2022-08-01T02:05:45;22.90;95.10
57552;DHT22;43379;48.160;14.036;2022-08-01T02:08:15;22.90;95.20
57552;DHT22;43379;48.160;14.036;2022-08-01T02:10:42;22.80;95.80
57552;DHT22;43379;48.160;14.036;2022-08-01T02:13:31;22.80;95.80
57552;DHT22;43379;48.160;14.036;2022-08-01T02:15:58;22.70;96.20
57552;DHT22;43379;48.160;14.036;2022-08-01T02:18:24;22.70;96.30
57552;DHT22;43379;48.160;14.036;2022-08-01T02:20:52;22.80;96.40
57552;DHT22;43379;48.160;14.036;2022-08-01T02:23:18;22.70;96.60
57552;DHT22;43379;48.160;14.036;2022-08-01T02:25:48;22.70;96.60
57552;DHT22;43379;48.160;14.036;2022-08-01T02:28:20;22.70;96.60
57552;DHT22;43379;48.160;14.036;2022-08-01T02:30:50;22.70;96.50
57552;DHT22;43379;48.160;14.036;2022-08-01T02:33:21;22.80;96.50
57552;DHT22;43379;48.160;14.036;2022-08-01T02:35:55;22.90;96.70
57552;DHT22;43379;48.160;14.036;2022-08-01T02:38:24;22.80;96.70
57552;DHT22;43379;48.160;14.036;2022-08-01T02:40:52;22.80;96.70
57552;DHT22;43379;48.160;14.036;2022-08-01T02:43:21;22.80;96.80
57552;DHT22;43379;48.160;14.036;2022-08-01T02:45:51;22.70;97.20
57552;DHT22;43379;48.160;14.036;2022-08-01T02:48:19;22.70;97.30
57552;DHT22;43379;48.160;14.036;2022-08-01T02:50:48;22.70;97.60
57552;DHT22;43379;48.160;14.036;2022-08-01T02:53:18;22.60;97.80
57552;DHT22;43379;48.160;14.036;2022-08-01T02:55:45;22.60;97.70
57552;DHT22;43379;48.160;14.036;2022-08-01T02:58:14;22.60;97.70
57552;DHT22;43379;48.160;14.036;2022-08-01T03:00:43;22.60;97.80
57552;DHT22;43379;48.160;14.036;2022-08-01T03:03:12;22.60;97.80
57552;DHT22;43379;48.160;14.036;2022-08-01T03:05:39;22.60;97.80
57552;DHT22;43379;48.160;14.036;2022-08-01T03:08:07;22.50;97.80
57552;DHT22;43379;48.160;14.036;2022-08-01T03:10:37;22.50;98.10
57552;DHT22;43379;48.160;14.036;2022-08-01T03:13:05;22.40;98.10
57552;DHT22;43379;48.160;14.036;2022-08-01T03:15:35;22.50;98.20
57552;DHT22;43379;48.160;14.036;2022-08-01T03:18:02;22.40;98.20
57552;DHT22;43379;48.160;14.036;2022-08-01T03:20:30;22.50;98.10
57552;DHT22;43379;48.160;14.036;2022-08-01T03:22:59;22.50;98.20
57552;DHT22;43379;48.160;14.036;2022-08-01T03:25:27;22.50;98.20
57552;DHT22;43379;48.160;14.036;2022-08-01T03:27:56;22.40;98.50
57552;DHT22;43379;48.160;14.036;2022-08-01T03:30:23;22.30;98.60
57552;DHT22;43379;48.160;14.036;2022-08-01T03:32:52;22.30;98.80
57552;DHT22;43379;48.160;14.036;2022-08-01T03:35:18;22.30;99.10
57552;DHT22;43379;48.160;14.036;2022-08-01T03:37:46;22.30;99.30
57552;DHT22;43379;48.160;14.036;2022-08-01T03:40:24;22.30;99.20
57552;DHT22;43379;48.160;14.036;2022-08-01T03:42:56;22.40;99.30
57552;DHT22;43379;48.160;14.036;2022-08-01T03:45:27;22.40;99.30
57552;DHT22;43379;48.160;14.036;2022-08-01T03:48:02;22.40;99.30
57552;DHT22;43379;48.160;14.036;2022-08-01T03:50:30;22.40;99.50
57552;DHT22;43379;48.160;14.036;2022-08-01T03:53:00;22.40;99.20
57552;DHT22;43379;48.160;14.036;2022-08-01T03:55:28;22.40;99.30
57552;DHT22;43379;48.160;14.036;2022-08-01T03:57:55;22.30;99.00
57552;DHT22;43379;48.160;14.036;2022-08-01T04:00:22;22.30;99.10
57552;DHT22;43379;48.160;14.036;2022-08-01T04:02:49;22.40;99.10
57552;DHT22;43379;48.160;14.036;2022-08-01T04:05:16;22.30;99.40
57552;DHT22;43379;48.160;14.036;2022-08-01T04:07:50;22.30;99.30
57552;DHT22;43379;48.160;14.036;2022-08-01T04:10:22;22.30;99.50
57552;DHT22;43379;48.160;14.036;2022-08-01T04:12:48;22.30;99.40
57552;DHT22;43379;48.160;14.036;2022-08-01T04:15:13;22.30;99.50
57552;DHT22;43379;48.160;14.036;2022-08-01T04:17:39;22.20;99.90
57552;DHT22;43379;48.160;14.036;2022-08-01T04:20:06;22.10;99.90
57552;DHT22;43379;48.160;14.036;2022-08-01T04:22:32;22.10;99.90
57552;DHT22;43379;48.160;14.036;2022-08-01T04:24:58;22.20;99.90
57552;DHT22;43379;48.160;14.036;2022-08-01T04:27:30;22.10;99.90
57552;DHT22;43379;48.160;14.036;2022-08-01T04:29:58;22.10;99.90
57552;DHT22;43379;48.160;14.036;2022-08-01T04:32:26;22.20;99.90
57552;DHT22;43379;48.160;14.036;2022-08-01T04:34:54;22.20;99.90
57552;DHT22;43379;48.160;14.036;2022-08-01T04:37:23;22.20;99.90
57552;DHT22;43379;48.160;14.036;2022-08-01T04:39:52;22.20;99.70
57552;DHT22;43379;48.160;14.036;2022-08-01T04:42:18;22.30;99.80
57552;DHT22;43379;48.160;14.036;2022-08-01T04:44:44;22.30;99.80
57552;DHT22;43379;48.160;14.036;2022-08-01T04:47:11;22.30;99.50
57552;DHT22;43379;48.160;14.036;2022-08-01T04:49:37;22.40;99.00
57552;DHT22;43379;48.160;14.036;2022-08-01T04:52:03;22.50;98.50
57552;DHT22;43379;48.160;14.036;2022-08-01T04:54:32;22.60;98.40
57552;DHT22;43379;48.160;14.036;2022-08-01T04:56:59;22.70;98.10
57552;DHT22;43379;48.160;14.036;2022-08-01T04:59:26;22.80;98.00
57552;DHT22;43379;48.160;14.036;2022-08-01T05:04:34;22.90;97.50
57552;DHT22;43379;48.160;14.036;2022-08-01T05:07:01;22.80;97.40
57552;DHT22;43379;48.160;14.036;2022-08-01T05:09:26;22.80;97.30
57552;DHT22;43379;48.160;14.036;2022-08-01T05:11:52;22.80;97.30
57552;DHT22;43379;48.160;14.036;2022-08-01T05:14:18;22.80;97.10
57552;DHT22;43379;48.160;14.036;2022-08-01T05:16:45;22.80;97.20
57552;DHT22;43379;48.160;14.036;2022-08-01T05:19:11;22.90;97.20
57552;DHT22;43379;48.160;14.036;2022-08-01T05:21:37;22.80;97.10
57552;DHT22;43379;48.160;14.036;2022-08-01T05:24:04;22.90;97.20
57552;DHT22;43379;48.160;14.036;2022-08-01T05:26:30;22.80;97.10
57552;DHT22;43379;48.160;14.036;2022-08-01T05:28:55;22.80;97.10
57552;DHT22;43379;48.160;14.036;2022-08-01T05:31:21;22.90;97.10
57552;DHT22;43379;48.160;14.036;2022-08-01T05:33:46;22.80;97.00
57552;DHT22;43379;48.160;14.036;2022-08-01T05:36:12;22.80;96.80
57552;DHT22;43379;48.160;14.036;2022-08-01T05:38:38;22.90;96.70
57552;DHT22;43379;48.160;14.036;2022-08-01T05:41:04;22.90;96.30
57552;DHT22;43379;48.160;14.036;2022-08-01T05:43:29;22.90;96.20
57552;DHT22;43379;48.160;14.036;2022-08-01T05:45:55;22.90;96.00
57552;DHT22;43379;48.160;14.036;2022-08-01T05:48:21;22.90;96.00
57552;DHT22;43379;48.160;14.036;2022-08-01T05:50:47;22.90;95.80
57552;DHT22;43379;48.160;14.036;2022-08-01T05:53:13;23.00;96.00
57552;DHT22;43379;48.160;14.036;2022-08-01T05:55:39;23.00;95.80
57552;DHT22;43379;48.160;14.036;2022-08-01T05:58:04;23.00;95.80
57552;DHT22;43379;48.160;14.036;2022-08-01T06:00:30;23.20;95.80
57552;DHT22;43379;48.160;14.036;2022-08-01T06:02:56;23.20;95.60
57552;DHT22;43379;48.160;14.036;2022-08-01T06:05:22;23.30;95.40
57552;DHT22;43379;48.160;14.036;2022-08-01T06:07:47;23.40;95.30
57552;DHT22;43379;48.160;14.036;2022-08-01T06:10:13;23.50;95.30
57552;DHT22;43379;48.160;14.036;2022-08-01T06:12:39;23.60;95.10
57552;DHT22;43379;48.160;14.036;2022-08-01T06:15:05;23.70;95.10
57552;DHT22;43379;48.160;14.036;2022-08-01T06:17:31;23.70;94.40
57552;DHT22;43379;48.160;14.036;2022-08-01T06:19:57;23.80;94.60
57552;DHT22;43379;48.160;14.036;2022-08-01T06:22:23;23.90;94.40
57552;DHT22;43379;48.160;14.036;2022-08-01T06:24:48;23.90;94.20
57552;DHT22;43379;48.160;14.036;2022-08-01T06:27:14;24.00;93.90
57552;DHT22;43379;48.160;14.036;2022-08-01T06:29:40;24.00;93.90
57552;DHT22;43379;48.160;14.036;2022-08-01T06:32:05;24.00;93.70
57552;DHT22;43379;48.160;14.036;2022-08-01T06:34:32;24.00;93.70
57552;DHT22;43379;48.160;14.036;2022-08-01T06:36:57;24.10;93.90
57552;DHT22;43379;48.160;14.036;2022-08-01T06:39:23;24.10;94.00
57552;DHT22;43379;48.160;14.036;2022-08-01T06:41:48;24.20;93.70
57552;DHT22;43379;48.160;14.036;2022-08-01T06:44:14;24.30;93.40
57552;DHT22;43379;48.160;14.036;2022-08-01T06:46:40;24.40;93.60
57552;DHT22;43379;48.160;14.036;2022-08-01T06:49:05;24.50;93.50
57552;DHT22;43379;48.160;14.036;2022-08-01T06:51:31;24.60;93.00
57552;DHT22;43379;48.160;14.036;2022-08-01T06:53:57;24.70;92.80
57552;DHT22;43379;48.160;14.036;2022-08-01T06:56:23;24.80;92.80
57552;DHT22;43379;48.160;14.036;2022-08-01T06:58:50;25.00;92.00
57552;DHT22;43379;48.160;14.036;2022-08-01T07:01:15;25.00;90.70
57552;DHT22;43379;48.160;14.036;2022-08-01T07:03:41;25.10;91.00
57552;DHT22;43379;48.160;14.036;2022-08-01T07:06:07;25.30;90.60
57552;DHT22;43379;48.160;14.036;2022-08-01T07:08:33;25.40;90.30
57552;DHT22;43379;48.160;14.036;2022-08-01T07:10:58;25.60;90.10
57552;DHT22;43379;48.160;14.036;2022-08-01T07:13:27;25.90;90.10
57552;DHT22;43379;48.160;14.036;2022-08-01T07:15:53;26.00;90.00
57552;DHT22;43379;48.160;14.036;2022-08-01T07:18:19;26.20;88.60
57552;DHT22;43379;48.160;14.036;2022-08-01T07:20:45;26.30;88.10
57552;DHT22;43379;48.160;14.036;2022-08-01T07:23:12;26.50;86.60
57552;DHT22;43379;48.160;14.036;2022-08-01T07:25:38;26.60;86.60
57552;DHT22;43379;48.160;14.036;2022-08-01T07:28:04;26.60;85.70
57552;DHT22;43379;48.160;14.036;2022-08-01T07:30:30;26.70;85.50
57552;DHT22;43379;48.160;14.036;2022-08-01T07:32:56;26.70;82.90
57552;DHT22;43379;48.160;14.036;2022-08-01T07:35:21;26.60;82.50
57552;DHT22;43379;48.160;14.036;2022-08-01T07:37:47;26.60;83.80
57552;DHT22;43379;48.160;14.036;2022-08-01T07:40:13;26.80;82.70
57552;DHT22;43379;48.160;14.036;2022-08-01T07:42:39;27.10;83.50
57552;DHT22;43379;48.160;14.036;2022-08-01T07:45:09;27.30;82.70
57552;DHT22;43379;48.160;14.036;2022-08-01T07:47:35;27.60;83.70
57552;DHT22;43379;48.160;14.036;2022-08-01T07:50:02;27.70;82.10
57552;DHT22;43379;48.160;14.036;2022-08-01T07:52:29;27.60;82.50
57552;DHT22;43379;48.160;14.036;2022-08-01T07:54:56;27.60;81.90
57552;DHT22;43379;48.160;14.036;2022-08-01T07:57:23;27.60;81.10
57552;DHT22;43379;48.160;14.036;2022-08-01T07:59:49;27.50;80.40
57552;DHT22;43379;48.160;14.036;2022-08-01T08:02:15;27.50;80.80
57552;DHT22;43379;48.160;14.036;2022-08-01T08:04:41;27.40;80.50
57552;DHT22;43379;48.160;14.036;2022-08-01T08:07:07;27.40;80.60
57552;DHT22;43379;48.160;14.036;2022-08-01T08:09:32;27.60;80.50
57552;DHT22;43379;48.160;14.036;2022-08-01T08:11:58;27.90;82.60
57552;DHT22;43379;48.160;14.036;2022-08-01T08:14:24;28.10;79.60
57552;DHT22;43379;48.160;14.036;2022-08-01T08:16:51;28.00;79.00
57552;DHT22;43379;48.160;14.036;2022-08-01T08:19:16;28.00;79.30
57552;DHT22;43379;48.160;14.036;2022-08-01T08:21:42;28.00;78.80
57552;DHT22;43379;48.160;14.036;2022-08-01T08:24:09;27.90;78.80
57552;DHT22;43379;48.160;14.036;2022-08-01T08:26:50;28.00;79.10
57552;DHT22;43379;48.160;14.036;2022-08-01T08:29:16;27.90;79.40
57552;DHT22;43379;48.160;14.036;2022-08-01T08:31:42;27.90;79.80
57552;DHT22;43379;48.160;14.036;2022-08-01T08:34:08;27.90;80.50
57552;DHT22;43379;48.160;14.036;2022-08-01T08:36:33;27.90;79.60
57552;DHT22;43379;48.160;14.036;2022-08-01T08:39:00;27.80;78.80
57552;DHT22;43379;48.160;14.036;2022-08-01T08:41:26;27.80;78.90
57552;DHT22;43379;48.160;14.036;2022-08-01T08:43:52;27.70;79.50
57552;DHT22;43379;48.160;14.036;2022-08-01T08:46:19;27.50;79.70
57552;DHT22;43379;48.160;14.036;2022-08-01T08:48:45;27.50;78.50
57552;DHT22;43379;48.160;14.036;2022-08-01T08:51:12;27.80;79.80
57552;DHT22;43379;48.160;14.036;2022-08-01T08:53:40;27.70;80.30
57552;DHT22;43379;48.160;14.036;2022-08-01T08:56:12;28.00;79.80
57552;DHT22;43379;48.160;14.036;2022-08-01T08:58:41;28.10;78.80
57552;DHT22;43379;48.160;14.036;2022-08-01T09:01:08;28.10;78.50
57552;DHT22;43379;48.160;14.036;2022-08-01T09:03:34;28.10;77.30
57552;DHT22;43379;48.160;14.036;2022-08-01T09:06:00;28.00;76.80
57552;DHT22;43379;48.160;14.036;2022-08-01T09:08:25;27.90;76.80
57552;DHT22;43379;48.160;14.036;2022-08-01T09:10:51;27.90;77.90
57552;DHT22;43379;48.160;14.036;2022-08-01T09:13:17;27.80;78.70
57552;DHT22;43379;48.160;14.036;2022-08-01T09:15:51;27.80;78.80
57552;DHT22;43379;48.160;14.036;2022-08-01T09:18:39;27.90;78.20
57552;DHT22;43379;48.160;14.036;2022-08-01T09:23:54;28.20;77.70
57552;DHT22;43379;48.160;14.036;2022-08-01T09:26:40;28.70;77.50
57552;DHT22;43379;48.160;14.036;2022-08-01T09:29:08;29.20;78.30
57552;DHT22;43379;48.160;14.036;2022-08-01T09:31:43;29.50;78.20
57552;DHT22;43379;48.160;14.036;2022-08-01T09:34:09;29.80;76.80
57552;DHT22;43379;48.160;14.036;2022-08-01T09:36:53;30.10;73.60
57552;DHT22;43379;48.160;14.036;2022-08-01T09:39:27;30.30;72.30
57552;DHT22;43379;48.160;14.036;2022-08-01T09:41:54;30.70;74.70
57552;DHT22;43379;48.160;14.036;2022-08-01T09:44:39;30.90;72.80
57552;DHT22;43379;48.160;14.036;2022-08-01T09:47:05;31.10;70.10
57552;DHT22;43379;48.160;14.036;2022-08-01T09:49:33;31.20;71.60
57552;DHT22;43379;48.160;14.036;2022-08-01T09:52:15;31.10;71.50
57552;DHT22;43379;48.160;14.036;2022-08-01T09:54:44;30.80;70.80
57552;DHT22;43379;48.160;14.036;2022-08-01T09:57:18;30.70;71.30
57552;DHT22;43379;48.160;14.036;2022-08-01T09:59:48;30.60;70.70
57552;DHT22;43379;48.160;14.036;2022-08-01T10:02:28;30.60;70.30
57552;DHT22;43379;48.160;14.036;2022-08-01T10:04:53;30.50;69.00
57552;DHT22;43379;48.160;14.036;2022-08-01T10:07:20;30.50;70.50
57552;DHT22;43379;48.160;14.036;2022-08-01T10:09:48;30.40;70.60
57552;DHT22;43379;48.160;14.036;2022-08-01T10:12:20;30.20;70.10
57552;DHT22;43379;48.160;14.036;2022-08-01T10:14:48;30.10;71.50
57552;DHT22;43379;48.160;14.036;2022-08-01T10:17:21;30.20;72.30
57552;DHT22;43379;48.160;14.036;2022-08-01T10:19:50;30.10;73.30
57552;DHT22;43379;48.160;14.036;2022-08-01T10:22:23;30.10;73.60
57552;DHT22;43379;48.160;14.036;2022-08-01T10:24:50;29.90;73.90
57552;DHT22;43379;48.160;14.036;2022-08-01T10:27:20;29.90;73.10
57552;DHT22;43379;48.160;14.036;2022-08-01T10:29:51;29.90;73.30
57552;DHT22;43379;48.160;14.036;2022-08-01T10:32:20;30.20;74.50
57552;DHT22;43379;48.160;14.036;2022-08-01T10:34:47;30.50;74.20
57552;DHT22;43379;48.160;14.036;2022-08-01T10:37:14;30.60;74.10
57552;DHT22;43379;48.160;14.036;2022-08-01T10:39:41;30.80;72.80
57552;DHT22;43379;48.160;14.036;2022-08-01T10:42:10;30.80;71.90
57552;DHT22;43379;48.160;14.036;2022-08-01T10:44:36;30.90;73.00
57552;DHT22;43379;48.160;14.036;2022-08-01T10:47:11;30.90;72.10
57552;DHT22;43379;48.160;14.036;2022-08-01T10:49:49;31.10;71.90
57552;DHT22;43379;48.160;14.036;2022-08-01T10:52:19;31.10;71.40
57552;DHT22;43379;48.160;14.036;2022-08-01T10:54:45;31.00;71.10
57552;DHT22;43379;48.160;14.036;2022-08-01T10:57:12;30.90;69.60
57552;DHT22;43379;48.160;14.036;2022-08-01T10:59:49;30.90;69.90
57552;DHT22;43379;48.160;14.036;2022-08-01T11:02:30;31.00;70.60
57552;DHT22;43379;48.160;14.036;2022-08-01T11:05:09;31.00;68.00
57552;DHT22;43379;48.160;14.036;2022-08-01T11:07:45;31.00;66.70
57552;DHT22;43379;48.160;14.036;2022-08-01T11:10:32;30.90;67.60
57552;DHT22;43379;48.160;14.036;2022-08-01T11:13:00;30.90;67.70
57552;DHT22;43379;48.160;14.036;2022-08-01T11:15:28;30.90;66.70
57552;DHT22;43379;48.160;14.036;2022-08-01T11:17:55;30.80;66.10
57552;DHT22;43379;48.160;14.036;2022-08-01T11:25:28;30.90;68.90
57552;DHT22;43379;48.160;14.036;2022-08-01T11:30:44;31.00;67.60
57552;DHT22;43379;48.160;14.036;2022-08-01T11:33:10;30.90;67.30
57552;DHT22;43379;48.160;14.036;2022-08-01T11:35:37;30.60;66.20
57552;DHT22;43379;48.160;14.036;2022-08-01T11:38:24;30.50;66.80
57552;DHT22;43379;48.160;14.036;2022-08-01T11:41:12;30.40;67.80
57552;DHT22;43379;48.160;14.036;2022-08-01T11:43:57;30.40;68.60
57552;DHT22;43379;48.160;14.036;2022-08-01T11:46:49;30.40;69.50
57552;DHT22;43379;48.160;14.036;2022-08-01T11:52:29;30.60;71.30
57552;DHT22;43379;48.160;14.036;2022-08-01T11:55:07;30.90;71.50
57552;DHT22;43379;48.160;14.036;2022-08-01T11:57:33;30.90;68.80
57552;DHT22;43379;48.160;14.036;2022-08-01T12:02:32;30.70;66.70
57552;DHT22;43379;48.160;14.036;2022-08-01T12:05:01;30.60;67.90
57552;DHT22;43379;48.160;14.036;2022-08-01T12:07:29;30.60;68.00
57552;DHT22;43379;48.160;14.036;2022-08-01T12:10:13;30.50;67.40
57552;DHT22;43379;48.160;14.036;2022-08-01T12:12:50;30.40;65.50
57552;DHT22;43379;48.160;14.036;2022-08-01T12:15:17;30.20;66.00
57552;DHT22;43379;48.160;14.036;2022-08-01T12:17:45;30.10;66.30
57552;DHT22;43379;48.160;14.036;2022-08-01T12:20:21;30.00;66.80
57552;DHT22;43379;48.160;14.036;2022-08-01T12:22:47;29.90;66.90
57552;DHT22;43379;48.160;14.036;2022-08-01T12:25:15;29.90;67.50
57552;DHT22;43379;48.160;14.036;2022-08-01T12:27:43;29.80;68.10
57552;DHT22;43379;48.160;14.036;2022-08-01T12:30:11;29.80;68.50
57552;DHT22;43379;48.160;14.036;2022-08-01T12:32:39;29.80;69.40
57552;DHT22;43379;48.160;14.036;2022-08-01T12:37:39;29.80;70.00
57552;DHT22;43379;48.160;14.036;2022-08-01T12:40:16;29.80;70.10
57552;DHT22;43379;48.160;14.036;2022-08-01T12:42:44;29.80;70.00
57552;DHT22;43379;48.160;14.036;2022-08-01T12:45:14;29.70;69.80
57552;DHT22;43379;48.160;14.036;2022-08-01T12:47:40;29.60;70.50
57552;DHT22;43379;48.160;14.036;2022-08-01T12:50:08;29.50;71.80
57552;DHT22;43379;48.160;14.036;2022-08-01T12:52:36;29.50;72.70
57552;DHT22;43379;48.160;14.036;2022-08-01T12:55:11;29.40;72.10
57552;DHT22;43379;48.160;14.036;2022-08-01T12:57:38;29.20;76.80
57552;DHT22;43379;48.160;14.036;2022-08-01T13:02:36;28.90;84.90
57552;DHT22;43379;48.160;14.036;2022-08-01T13:05:02;28.70;86.80
57552;DHT22;43379;48.160;14.036;2022-08-01T13:07:44;28.60;87.90
57552;DHT22;43379;48.160;14.036;2022-08-01T13:10:11;28.60;88.70
57552;DHT22;43379;48.160;14.036;2022-08-01T13:12:38;28.50;88.70
57552;DHT22;43379;48.160;14.036;2022-08-01T13:17:50;28.50;89.80
57552;DHT22;43379;48.160;14.036;2022-08-01T13:20:27;28.60;89.60
57552;DHT22;43379;48.160;14.036;2022-08-01T13:22:54;28.60;88.60
57552;DHT22;43379;48.160;14.036;2022-08-01T13:25:20;28.60;86.80
57552;DHT22;43379;48.160;14.036;2022-08-01T13:27:45;28.60;86.50
57552;DHT22;43379;48.160;14.036;2022-08-01T13:30:17;28.60;86.80
57552;DHT22;43379;48.160;14.036;2022-08-01T13:32:44;28.80;87.80
57552;DHT22;43379;48.160;14.036;2022-08-01T13:35:22;29.00;84.30
57552;DHT22;43379;48.160;14.036;2022-08-01T13:37:47;29.00;82.80
57552;DHT22;43379;48.160;14.036;2022-08-01T13:40:23;29.10;81.20
57552;DHT22;43379;48.160;14.036;2022-08-01T13:42:49;29.20;84.10
57552;DHT22;43379;48.160;14.036;2022-08-01T13:45:15;29.20;82.30
57552;DHT22;43379;48.160;14.036;2022-08-01T13:47:44;29.30;83.20
57552;DHT22;43379;48.160;14.036;2022-08-01T13:50:09;29.30;84.00
57552;DHT22;43379;48.160;14.036;2022-08-01T13:52:35;29.40;83.80
57552;DHT22;43379;48.160;14.036;2022-08-01T13:55:01;29.40;83.30
57552;DHT22;43379;48.160;14.036;2022-08-01T13:57:27;29.40;82.50
57552;DHT22;43379;48.160;14.036;2022-08-01T13:59:53;29.40;81.90
57552;DHT22;43379;48.160;14.036;2022-08-01T14:02:19;29.40;82.00
57552;DHT22;43379;48.160;14.036;2022-08-01T14:04:45;29.40;82.90
57552;DHT22;43379;48.160;14.036;2022-08-01T14:07:11;29.40;81.90
57552;DHT22;43379;48.160;14.036;2022-08-01T14:09:37;29.40;81.90
57552;DHT22;43379;48.160;14.036;2022-08-01T14:12:03;29.40;81.80
57552;DHT22;43379;48.160;14.036;2022-08-01T14:14:29;29.40;82.20
57552;DHT22;43379;48.160;14.036;2022-08-01T14:16:55;29.40;81.50
57552;DHT22;43379;48.160;14.036;2022-08-01T14:19:22;29.40;81.60
57552;DHT22;43379;48.160;14.036;2022-08-01T14:21:48;29.40;80.70
57552;DHT22;43379;48.160;14.036;2022-08-01T14:24:13;29.30;81.00
57552;DHT22;43379;48.160;14.036;2022-08-01T14:26:39;29.40;80.10
57552;DHT22;43379;48.160;14.036;2022-08-01T14:29:05;29.30;79.80
57552;DHT22;43379;48.160;14.036;2022-08-01T14:31:30;29.40;80.70
57552;DHT22;43379;48.160;14.036;2022-08-01T14:33:56;29.40;80.50
57552;DHT22;43379;48.160;14.036;2022-08-01T14:36:22;29.40;80.50
57552;DHT22;43379;48.160;14.036;2022-08-01T14:38:47;29.40;80.60
57552;DHT22;43379;48.160;14.036;2022-08-01T14:41:14;29.30;76.20
57552;DHT22;43379;48.160;14.036;2022-08-01T14:43:40;29.30;77.60
57552;DHT22;43379;48.160;14.036;2022-08-01T14:46:05;29.30;77.90
57552;DHT22;43379;48.160;14.036;2022-08-01T14:48:33;29.30;77.90
57552;DHT22;43379;48.160;14.036;2022-08-01T14:50:59;29.30;76.50
57552;DHT22;43379;48.160;14.036;2022-08-01T14:53:28;29.30;77.90
57552;DHT22;43379;48.160;14.036;2022-08-01T14:55:54;29.30;79.80
57552;DHT22;43379;48.160;14.036;2022-08-01T14:58:20;29.40;78.70
57552;DHT22;43379;48.160;14.036;2022-08-01T15:00:46;29.40;77.70
57552;DHT22;43379;48.160;14.036;2022-08-01T15:03:11;29.40;77.80
57552;DHT22;43379;48.160;14.036;2022-08-01T15:05:37;29.40;78.00
57552;DHT22;43379;48.160;14.036;2022-08-01T15:08:05;29.40;77.70
57552;DHT22;43379;48.160;14.036;2022-08-01T15:10:31;29.40;77.30
57552;DHT22;43379;48.160;14.036;2022-08-01T15:12:58;29.30;76.80
57552;DHT22;43379;48.160;14.036;2022-08-01T15:15:26;29.20;77.20
57552;DHT22;43379;48.160;14.036;2022-08-01T15:17:51;29.10;77.60
57552;DHT22;43379;48.160;14.036;2022-08-01T15:20:18;28.90;78.40
57552;DHT22;43379;48.160;14.036;2022-08-01T15:22:44;28.90;78.70
57552;DHT22;43379;48.160;14.036;2022-08-01T15:25:10;28.80;78.80
57552;DHT22;43379;48.160;14.036;2022-08-01T15:27:35;28.70;79.30
57552;DHT22;43379;48.160;14.036;2022-08-01T15:30:02;28.60;77.70
57552;DHT22;43379;48.160;14.036;2022-08-01T15:32:28;28.50;74.30
57552;DHT22;43379;48.160;14.036;2022-08-01T15:34:55;28.40;73.40
57552;DHT22;43379;48.160;14.036;2022-08-01T15:37:20;28.20;73.00
57552;DHT22;43379;48.160;14.036;2022-08-01T15:39:47;27.90;73.80
57552;DHT22;43379;48.160;14.036;2022-08-01T15:42:15;27.90;74.70
57552;DHT22;43379;48.160;14.036;2022-08-01T15:44:42;27.90;74.30
57552;DHT22;43379;48.160;14.036;2022-08-01T15:47:08;27.80;73.60
57552;DHT22;43379;48.160;14.036;2022-08-01T15:49:35;27.70;73.40
57552;DHT22;43379;48.160;14.036;2022-08-01T15:52:05;27.60;72.90
57552;DHT22;43379;48.160;14.036;2022-08-01T15:54:31;27.50;73.30
57552;DHT22;43379;48.160;14.036;2022-08-01T15:56:57;27.40;74.00
57552;DHT22;43379;48.160;14.036;2022-08-01T15:59:23;27.30;74.20
57552;DHT22;43379;48.160;14.036;2022-08-01T16:01:49;27.30;73.70
57552;DHT22;43379;48.160;14.036;2022-08-01T16:04:15;27.10;74.90
57552;DHT22;43379;48.160;14.036;2022-08-01T16:06:41;27.10;77.50